Logo AVAMET
Benvolgut visitant, si us plau, ingressa Recuperar contrasenya

Peníscola Gran Hotel

Dades diàries. Acumulats / Últims 30 dies disponibles

Data Temperatura (°C) Humitat rel. (%) Pressió rel. (hPa) Vent (km/h) Precipitació
Mínima Mitjana Màxima Amplitud
tèrmica
Mínima Mitjana Màxima Mínima Mitjana Màxima Predom. Mitjana Ràfega
màxima
Total
(mm)
Índex-n
Mínima Mitjana Màxima Mínima Mitjana Màxima n
0 a 1
P0 max
mm 5'
Dades mensuals acumulades fins l'últim dia disponible
06/2019 12,3 15,9 18,3 19,6 21,0 23,3 26,8 14,5 28 65 89 1.004 1.013 1.022   39,0 4,4
Dades anuals acumulades fins l'últim dia disponible
2019 2,3 10,1 18,3 14,3 9,3 18,6 28,0 25,7 1 64 94 987 1.017 1.034   8,1 71,0 59,4
Últims 30 dies disponibles
16-06-2019 18,3     21,3     24,3 6,0 66 77 87 1.015 1.017 1.019 31,0 0,0
15-06-2019 17,6     20,2     22,9 5,3 50 70 89 1.010 1.014 1.018 31,0 0,0
14-06-2019 17,1     19,9     22,8 5,7 41 65 89 1.007 1.009 1.011 32,0 0,0
13-06-2019 15,1     18,9     22,8 7,7 62 72 82 1.010 1.012 1.013 21,0 0,8 0,42 0,40
12-06-2019 12,3     16,6     21,0 8,7 41 56 70 1.012 1.013 1.014 29,0 0,0
11-06-2019 13,6     17,7     21,8 8,2 45 57 69 1.009 1.011 1.013 26,0 0,6
10-06-2019 15,3     21,1     26,8 11,5 37 56 75 1.009 1.011 1.012 32,0 0,0
09-06-2019 17,2     20,6     24,1 6,9 28 48 67 1.010 1.014 1.018 31,0 0,0
08-06-2019 16,9     20,7     24,5 7,6 49 64 79 1.017 1.020 1.022 27,0 0,0
07-06-2019 16,5     20,8     25,1 8,6 60 75 89 1.008 1.013 1.017 39,0 0,0
06-06-2019 14,3     18,6     22,9 8,6 46 65 84 1.010 1.012 1.013 24,0 0,0
05-06-2019 18,2     21,5     24,8 6,6 32 61 89 1.004 1.008 1.011 37,0 3,0 0,42 1,60
04-06-2019 15,2     19,2     23,3 8,1 69 78 86 1.007 1.011 1.014 24,0 0,0
03-06-2019 15,9     18,9     21,9 6,0 49 68 87 1.013 1.015 1.017 29,0 0,0
02-06-2019 15,9     18,9     21,8 5,9 45 65 85 1.015 1.017 1.019 37,0 0,0
01-06-2019 15,1     18,2     21,4 6,3 48 65 82 1.018 1.020 1.021 35,0 0,0
31-05-2019 13,3     17,7     22,1 8,8 49 67 85 1.020 1.022 1.023 32,0 0,0
30-05-2019 13,4     17,8     22,2 8,8 52 67 81 1.021 1.022 1.023 35,0 0,0
29-05-2019 16,0     20,4     24,7 8,7 30 48 66 1.015 1.018 1.021 44,0 0,0
28-05-2019 16,6     21,6     26,6 10,0 25 46 66 1.010 1.013 1.016 37,0 0,0
27-05-2019 15,0     19,9     24,7 9,7 40 60 80 1.008 1.011 1.013 34,0 0,0
26-05-2019 15,8     20,6     25,3 9,5 36 57 77 1.012 1.014 1.015 34,0 0,0
25-05-2019 15,6     20,1     24,6 9,0 45 68 90 1.013 1.014 1.015 29,0 0,8
24-05-2019 16,0     17,7     19,4 3,4 1 46 91 1.011 1.013 1.014 29,0 15,2 0,42 1,20
23-05-2019 13,3     18,1     23,0 9,7 69 78 87 1.012 1.014 1.016 27,0 0,0
22-05-2019 14,7     18,3     21,9 7,2 56 73 89 1.015 1.016 1.017 29,0 0,0
21-05-2019 13,3     17,2     21,1 7,8 57 72 87 1.012 1.014 1.015 34,0 0,0
20-05-2019 13,9     17,1     20,2 6,3 39 55 71 1.009 1.011 1.012 35,0 0,0
19-05-2019 12,3     17,6     22,8 10,5 35 56 77 1.006 1.008 1.010 42,0 0,0
18-05-2019 12,5     15,8     19,2 6,7 1 34 66 1.006 1.008 1.009 34,0 1,2
Últims 13 mesos disponibles
05/2019 8,3 13,9 17,3 17,9 18,2 21,9 28,0 19,7 34 63 83 1.003 1.013 1.022 48,0 26,4
04/2019 8,3 11,9 14,9 15,2 12,1 18,6 23,0 14,7 47 68 84 997 1.012 1.023 SSO 0,3 56,0 21,2
03/2019 5,7 9,0 13,2 13,6 14,4 18,3 21,4 15,7 46 61 81 1.008 1.021 1.028 48,0 5,6
02/2019 2,3 6,2 10,8 11,0 9,3 15,8 20,9 18,6 37 69 82 991 1.022 1.032 71,0 0,0
01/2019 2,9 6,4 10,4 11,0 12,7 15,6 20,2 17,3 40 60 84 999 1.016 1.029 60,0 1,8
12/2018 4,3 8,6 12,9 12,9 13,3 17,2 24,4 20,1 52 72 90 1.007 1.023 1.029 OSO 0,1 58,0 5,2
11/2018 7,1 10,9 15,7 14,8 15,1 18,7 21,3 14,2 52 74 89 1.000 1.013 1.022 61,0 100,4
10/2018 9,6 14,5 17,9 18,9 15,6 23,4 28,2 18,6 38 68 92 996 1.012 1.024 66,0 119,2
09/2018 16,2 20,3 24,4 24,3 24,3 28,3 31,1 14,9 43 66 83 1.010 1.017 1.027 52,0 41,4
08/2018 19,3 22,8 26,7 26,5 27,6 30,3 33,0 13,7 44 68 81 1.009 1.014 1.019 40,0 16,2
07/2018 19,3 22,2 23,9 26,0 26,6 29,7 35,1 15,8 52 71 81 1.008 1.012 1.018 42,0 1,4
06/2018 15,1 19,2 23,1 22,4 22,7 26,2 29,3 14,2 44 70 83 1.008 1.013 1.019 44,0 14,4
05/2018 10,3 14,6 19,9 18,3 18,1 22,0 24,8 14,5 39 68 85 1.008 1.013 1.016 47,0 2,8
Tots els anys disponibles
2018 -1,8 14,1 26,7 18,0 7,4 22,0 35,1 36,9 35 68 93 991 1.014 1.033 0,5 74,0 371,8
2017 1,2 13,9 25,2 17,9 7,3 22,0 37,3 36,1 31 67 93 993 1.017 1.034 0,0 68,0 110,4
2016 1,9 14,1 24,9 18,1 10,3 22,0 32,4 30,5 36 66 92 992 1.016 1.035 63,0 274,2
2015 1,2 12,3 27,8 16,2 8,6 20,0 31,6 30,4 33 68 94 993 1.019 1.036 88,0 296,7
Temperatura (°C)
Humitat relativa (%)
Velocitat del vent i ràfega màxima (km/h)
Direcció del vent (°)
Pressió (hPa)
Precipitació (mm)
Nota sobre les dades: s'avisa a l'usuari de la provisionalitat i no oficialitat d'aquestes dades
Logo AVAMET blanc
Web allotjada a Sollutia
Llicència de Creative CommonsLa web d'AVAMET i els seus continguts estan subjectes a una llicència de
Reconeixement - No Comercial - Compartir igual
Properes estacions: Catadau - Urb. Lloma Molina (Inforatge), Altea - Club Nàutic d'Altea (Soci), Ares del Maestrat (Ajuntament Soci),      - - - - -      Últimes estacions: Ontinyent - El Pilar (Soci), Asp - Poliesportiu (Soci), Jacarilla - centro (MeteOrihuela), Elx - Maitino/Vallverda/Velarde/Matola/Ferriol (Soci TiempoElche.com) - - -